Nordkinn — OZ2080 — position and weather

sailwx.info

Track history (hours):
 
Tides and Currents Weather Stations Pressure Air Temp Water Temp Dewpoint Dewpoint Depression Visibility Wind Speed Wind Dir Waves Ship Positions

Nordkinn

Last reported at 2018-Feb-20 19:31 UTC. Time now 2018-Feb-20 19:33 UTC.
Position N 57°58' E 007°02'.

Length 80 m; draft 5.1 m.

Type: Cargo ship. MMSI: 231711000.

Date/timePositionNaut miles runAvg speedWind from/ knotsBaromVisibWave heightAir tempDewpointWater temp
2018-Feb-20 19:31N 57°58' E 007°02'815.3
2018-Feb-20 18:59N 57°56' E 007°17'715.2
2018-Feb-20 18:30N 57°57' E 007°30'714.9
2018-Feb-20 18:00N 57°57' E 007°44'815.0
2018-Feb-20 17:30N 57°60' E 007°58'815.4
2018-Feb-20 17:01N 58°03' E 008°11'816.5
2018-Feb-20 16:30N 58°07' E 008°24'816.4
2018-Feb-20 16:01N 58°13' E 008°35'816.5
2018-Feb-20 15:31N 58°19' E 008°45'916.7
2018-Feb-20 15:00N 58°26' E 008°54'611.9
2018-Feb-20 14:30N 58°32' E 008°60'4 8.5
2018-Feb-20 14:01N 58°30' E 008°53'0 0.0
2018-Feb-20 13:31N 58°30' E 008°53'0 0.0
2018-Feb-20 13:01N 58°30' E 008°53'0 0.0
2018-Feb-20 12:30N 58°30' E 008°53'0 0.0
2018-Feb-20 12:00N 58°30' E 008°53'0 0.0
2018-Feb-20 11:31N 58°30' E 008°53'0 0.0
2018-Feb-20 11:01N 58°30' E 008°53'0 0.0
2018-Feb-20 10:30N 58°30' E 008°53'0 0.0
2018-Feb-20 10:00N 58°30' E 008°53'2 3.5
2018-Feb-20 09:30N 58°29' E 008°50'4 8.1
2018-Feb-20 09:00N 58°25' E 008°47'613.2
2018-Feb-20 08:30N 58°21' E 008°56'815.1
2018-Feb-20 08:00N 58°17' E 009°09'4014.9
2018-Feb-20 05:18N 57°57' E 010°15'415.5
2018-Feb-20 05:00N 57°55' E 010°23'815.5
2018-Feb-20 04:31N 57°51' E 010°35'815.8
2018-Feb-20 04:00N 57°47' E 010°48'815.8
2018-Feb-20 03:31N 57°42' E 010°60'816.2
2018-Feb-20 03:01N 57°36' E 011°10'815.7
2018-Feb-20 02:30N 57°31' E 011°21'815.5
2018-Feb-20 02:01N 57°24' E 011°28'815.7
2018-Feb-20 01:30N 57°17' E 011°34'815.2
2018-Feb-20 01:00N 57°10' E 011°38'915.9
2018-Feb-20 00:28N 57°02' E 011°44'4715.3
2018-Feb-19 21:24N 56°17' E 012°10'615.3
2018-Feb-19 21:01N 56°13' E 012°18'815.8
2018-Feb-19 20:31N 56°09' E 012°30'917.0
2018-Feb-19 20:01N 56°02' E 012°40'815.8
2018-Feb-19 19:31N 55°55' E 012°44'815.6
2018-Feb-19 19:01N 55°47' E 012°43'816.2
2018-Feb-19 18:31N 55°39' E 012°42'815.2
2018-Feb-19 18:00N 55°31' E 012°43'815.3
2018-Feb-19 17:31N 55°24' E 012°42'612.8
2018-Feb-19 17:01N 55°18' E 012°45'714.7
2018-Feb-19 16:30N 55°14' E 012°56'  
2018-Feb-17 02:46N 54°34' E 012°18'414.1
2018-Feb-17 02:30N 54°30' E 012°16'713.7
2018-Feb-17 02:00N 54°25' E 012°10'814.1
2018-Feb-17 01:24N 54°25' E 011°55'813.7
2018-Feb-17 00:50N 54°26' E 011°42'514.5
2018-Feb-17 00:30N 54°28' E 011°35'714.5
2018-Feb-17 00:00N 54°32' E 011°23'713.9
2018-Feb-16 23:30N 54°34' E 011°12'914.2
2018-Feb-16 22:53N 54°34' E 010°57'514.2
2018-Feb-16 22:30N 54°34' E 010°48'814.0
2018-Feb-16 21:54N 54°32' E 010°34'27 7.4
2018-Feb-16 18:15N 54°22' E 009°51'2 8.2
2018-Feb-16 18:00N 54°22' E 009°47'4 8.1
2018-Feb-16 17:30N 54°19' E 009°43'4 7.8
2018-Feb-16 17:00N 54°16' E 009°38'1 2.4
2018-Feb-16 16:30N 54°15' E 009°37'4 7.5
2018-Feb-16 16:00N 54°12' E 009°33'4 8.7
2018-Feb-16 15:30N 54°10' E 009°26'5 8.3
2018-Feb-16 14:58N 54°08' E 009°20'4 8.4
2018-Feb-16 14:30N 54°04' E 009°19'4 7.8
2018-Feb-16 14:00N 54°00' E 009°18'4 7.7
2018-Feb-16 13:30N 53°57' E 009°14'4 8.7
2018-Feb-16 13:00N 53°54' E 009°09'0 0.6
2018-Feb-16 12:30N 53°54' E 009°09'0 0.5
2018-Feb-16 12:00N 53°53' E 009°08'2 3.7
2018-Feb-16 11:30N 53°53' E 009°05'4 7.6
2018-Feb-16 11:00N 53°51' E 008°60'816.0
2018-Feb-16 10:31N 53°51' E 008°46'816.5
2018-Feb-16 10:00N 53°57' E 008°37'15313.2
2018-Feb-15 22:25N 53°09' E 004°32'613.0
2018-Feb-15 21:59N 53°04' E 004°28'613.0
2018-Feb-15 21:30N 52°58' E 004°29'613.0
2018-Feb-15 21:00N 52°52' E 004°30'713.9
2018-Feb-15 20:30N 52°45' E 004°30'714.3
2018-Feb-15 20:00N 52°37' E 004°30'714.3
2018-Feb-15 19:30N 52°30' E 004°31'4 7.8
2018-Feb-15 19:00N 52°28' E 004°36'0 1.0
2018-Feb-15 18:31N 52°28' E 004°37'2 4.0
2018-Feb-15 18:01N 52°28' E 004°40'0 0.0
2018-Feb-15 17:30N 52°28' E 004°40'0 0.0
2018-Feb-15 17:00N 52°28' E 004°40'0 0.0
2018-Feb-15 16:30N 52°28' E 004°40'0 0.0
2018-Feb-15 16:00N 52°28' E 004°40'0 0.0
2018-Feb-15 15:30N 52°28' E 004°40'0 0.0
2018-Feb-15 15:00N 52°28' E 004°40'0 0.0
2018-Feb-15 14:30N 52°28' E 004°40'0 0.0
2018-Feb-15 14:00N 52°28' E 004°40'0 0.0
2018-Feb-15 13:30N 52°28' E 004°40'0 0.0
2018-Feb-15 13:00N 52°28' E 004°40'0 0.0
2018-Feb-15 12:30N 52°28' E 004°40'0 0.0
2018-Feb-15 12:00N 52°28' E 004°40'0 0.0
2018-Feb-15 11:00N 52°28' E 004°40'0 0.0
2018-Feb-15 10:30N 52°28' E 004°40'0 0.0
2018-Feb-15 10:00N 52°28' E 004°40'0 0.0
2018-Feb-15 09:30N 52°28' E 004°40'0 0.0
2018-Feb-15 09:00N 52°28' E 004°40'0 0.0
2018-Feb-15 08:00N 52°28' E 004°40'0 0.0
2018-Feb-15 07:30N 52°28' E 004°40'0 0.0
2018-Feb-15 07:00N 52°28' E 004°40'0 0.0
2018-Feb-15 06:30N 52°28' E 004°40'0 0.0
2018-Feb-15 06:00N 52°28' E 004°40'0 0.0
2018-Feb-15 05:30N 52°28' E 004°40'0 0.0
2018-Feb-15 05:00N 52°28' E 004°40'0 0.0
2018-Feb-15 04:30N 52°28' E 004°40'0 0.0
2018-Feb-15 04:00N 52°28' E 004°40'0 0.7
2018-Feb-15 03:30N 52°28' E 004°39'2 4.3
2018-Feb-15 03:01N 52°28' E 004°36'1 1.6
2018-Feb-15 02:30N 52°28' E 004°35'510.7
2018-Feb-15 02:00N 52°28' E 004°26'2 3.7
2018-Feb-15 01:30N 52°28' E 004°23'2 3.9
2018-Feb-15 01:00N 52°28' E 004°20'4 7.2
2018-Feb-15 00:30N 52°29' E 004°14'3 6.6
2018-Feb-15 00:00N 52°30' E 004°09'3 5.8
2018-Feb-14 23:30N 52°32' E 004°06'  
2018-Feb-11 09:20N 62°01' E 004°26'514.5
2018-Feb-11 09:00N 62°03' E 004°35'714.5
2018-Feb-11 08:30N 62°07' E 004°48'814.8
2018-Feb-11 07:59N 62°11' E 005°02'815.2
2018-Feb-11 07:29N 62°15' E 005°16'715.1
2018-Feb-11 07:00N 62°19' E 005°30'713.8
2018-Feb-11 06:30N 62°19' E 005°44'713.8
2018-Feb-11 06:00N 62°25' E 005°52'715.2
2018-Feb-11 05:31N 62°29' E 006°06'2 4.7
2018-Feb-11 05:00N 62°29' E 006°11'0 0.0
2018-Feb-11 04:30N 62°29' E 006°11'1 1.4
2018-Feb-11 04:00N 62°29' E 006°10'611.2
2018-Feb-11 03:30N 62°24' E 006°04'611.8
2018-Feb-11 03:00N 62°18' E 006°03'714.3
2018-Feb-11 02:30N 62°13' E 005°53'714.2
2018-Feb-11 02:00N 62°11' E 005°38'612.5
2018-Feb-11 01:30N 62°11' E 005°25'612.3
2018-Feb-11 01:00N 62°13' E 005°13'611.5
2018-Feb-11 00:30N 62°09' E 005°04'714.2
2018-Feb-11 00:00N 62°02' E 005°09'611.8
2018-Feb-10 23:30N 61°56' E 005°08'0 0.0
2018-Feb-10 23:00N 61°56' E 005°08'0 0.0
2018-Feb-10 22:30N 61°56' E 005°08'0 0.0
2018-Feb-10 22:00N 61°56' E 005°08'0 0.0
2018-Feb-10 21:30N 61°56' E 005°08'0 0.0
2018-Feb-10 21:00N 61°56' E 005°08'0 0.0
2018-Feb-10 20:30N 61°56' E 005°08'0 0.0
2018-Feb-10 20:00N 61°56' E 005°08'  
Track history (hours):
 
Tides and Currents Weather Stations Pressure Air Temp Water Temp Dewpoint Dewpoint Depression Visibility Wind Speed Wind Dir Waves Ship Positions

Nordkinn

Last reported at 2018-Feb-20 19:31 UTC. Time now 2018-Feb-20 19:33 UTC.
Position N 57°58' E 007°02'.

Length 80 m; draft 5.1 m.

Type: Cargo ship. MMSI: 231711000.

Date/timePositionNaut miles runAvg speedWind from/ knotsBaromVisibWave heightAir tempDewpointWater temp
2018-Feb-20 19:31N 57°58' E 007°02'815.3
2018-Feb-20 18:59N 57°56' E 007°17'715.2
2018-Feb-20 18:30N 57°57' E 007°30'714.9
2018-Feb-20 18:00N 57°57' E 007°44'815.0
2018-Feb-20 17:30N 57°60' E 007°58'815.4
2018-Feb-20 17:01N 58°03' E 008°11'816.5
2018-Feb-20 16:30N 58°07' E 008°24'816.4
2018-Feb-20 16:01N 58°13' E 008°35'816.5
2018-Feb-20 15:31N 58°19' E 008°45'916.7
2018-Feb-20 15:00N 58°26' E 008°54'611.9
2018-Feb-20 14:30N 58°32' E 008°60'4 8.5
2018-Feb-20 14:01N 58°30' E 008°53'0 0.0
2018-Feb-20 13:31N 58°30' E 008°53'0 0.0
2018-Feb-20 13:01N 58°30' E 008°53'0 0.0
2018-Feb-20 12:30N 58°30' E 008°53'0 0.0
2018-Feb-20 12:00N 58°30' E 008°53'0 0.0
2018-Feb-20 11:31N 58°30' E 008°53'0 0.0
2018-Feb-20 11:01N 58°30' E 008°53'0 0.0
2018-Feb-20 10:30N 58°30' E 008°53'0 0.0
2018-Feb-20 10:00N 58°30' E 008°53'2 3.5
2018-Feb-20 09:30N 58°29' E 008°50'4 8.1
2018-Feb-20 09:00N 58°25' E 008°47'613.2
2018-Feb-20 08:30N 58°21' E 008°56'815.1
2018-Feb-20 08:00N 58°17' E 009°09'4014.9
2018-Feb-20 05:18N 57°57' E 010°15'415.5
2018-Feb-20 05:00N 57°55' E 010°23'815.5
2018-Feb-20 04:31N 57°51' E 010°35'815.8
2018-Feb-20 04:00N 57°47' E 010°48'815.8
2018-Feb-20 03:31N 57°42' E 010°60'816.2
2018-Feb-20 03:01N 57°36' E 011°10'815.7
2018-Feb-20 02:30N 57°31' E 011°21'815.5
2018-Feb-20 02:01N 57°24' E 011°28'815.7
2018-Feb-20 01:30N 57°17' E 011°34'815.2
2018-Feb-20 01:00N 57°10' E 011°38'915.9
2018-Feb-20 00:28N 57°02' E 011°44'4715.3
2018-Feb-19 21:24N 56°17' E 012°10'615.3
2018-Feb-19 21:01N 56°13' E 012°18'815.8
2018-Feb-19 20:31N 56°09' E 012°30'917.0
2018-Feb-19 20:01N 56°02' E 012°40'815.8
2018-Feb-19 19:31N 55°55' E 012°44'815.6
2018-Feb-19 19:01N 55°47' E 012°43'816.2
2018-Feb-19 18:31N 55°39' E 012°42'815.2
2018-Feb-19 18:00N 55°31' E 012°43'815.3
2018-Feb-19 17:31N 55°24' E 012°42'612.8
2018-Feb-19 17:01N 55°18' E 012°45'714.7
2018-Feb-19 16:30N 55°14' E 012°56'  
2018-Feb-17 02:46N 54°34' E 012°18'414.1
2018-Feb-17 02:30N 54°30' E 012°16'713.7
2018-Feb-17 02:00N 54°25' E 012°10'814.1
2018-Feb-17 01:24N 54°25' E 011°55'813.7
2018-Feb-17 00:50N 54°26' E 011°42'514.5
2018-Feb-17 00:30N 54°28' E 011°35'714.5
2018-Feb-17 00:00N 54°32' E 011°23'713.9
2018-Feb-16 23:30N 54°34' E 011°12'914.2
2018-Feb-16 22:53N 54°34' E 010°57'514.2
2018-Feb-16 22:30N 54°34' E 010°48'814.0
2018-Feb-16 21:54N 54°32' E 010°34'27 7.4
2018-Feb-16 18:15N 54°22' E 009°51'2 8.2
2018-Feb-16 18:00N 54°22' E 009°47'4 8.1
2018-Feb-16 17:30N 54°19' E 009°43'4 7.8
2018-Feb-16 17:00N 54°16' E 009°38'1 2.4
2018-Feb-16 16:30N 54°15' E 009°37'4 7.5
2018-Feb-16 16:00N 54°12' E 009°33'4 8.7
2018-Feb-16 15:30N 54°10' E 009°26'5 8.3
2018-Feb-16 14:58N 54°08' E 009°20'4 8.4
2018-Feb-16 14:30N 54°04' E 009°19'4 7.8
2018-Feb-16 14:00N 54°00' E 009°18'4 7.7
2018-Feb-16 13:30N 53°57' E 009°14'4 8.7
2018-Feb-16 13:00N 53°54' E 009°09'0 0.6
2018-Feb-16 12:30N 53°54' E 009°09'0 0.5
2018-Feb-16 12:00N 53°53' E 009°08'2 3.7
2018-Feb-16 11:30N 53°53' E 009°05'4 7.6
2018-Feb-16 11:00N 53°51' E 008°60'816.0
2018-Feb-16 10:31N 53°51' E 008°46'816.5
2018-Feb-16 10:00N 53°57' E 008°37'15313.2
2018-Feb-15 22:25N 53°09' E 004°32'613.0
2018-Feb-15 21:59N 53°04' E 004°28'613.0
2018-Feb-15 21:30N 52°58' E 004°29'613.0
2018-Feb-15 21:00N 52°52' E 004°30'713.9
2018-Feb-15 20:30N 52°45' E 004°30'714.3
2018-Feb-15 20:00N 52°37' E 004°30'714.3
2018-Feb-15 19:30N 52°30' E 004°31'4 7.8
2018-Feb-15 19:00N 52°28' E 004°36'0 1.0
2018-Feb-15 18:31N 52°28' E 004°37'2 4.0
2018-Feb-15 18:01N 52°28' E 004°40'0 0.0
2018-Feb-15 17:30N 52°28' E 004°40'0 0.0
2018-Feb-15 17:00N 52°28' E 004°40'0 0.0
2018-Feb-15 16:30N 52°28' E 004°40'0 0.0
2018-Feb-15 16:00N 52°28' E 004°40'0 0.0
2018-Feb-15 15:30N 52°28' E 004°40'0 0.0
2018-Feb-15 15:00N 52°28' E 004°40'0 0.0
2018-Feb-15 14:30N 52°28' E 004°40'0 0.0
2018-Feb-15 14:00N 52°28' E 004°40'0 0.0
2018-Feb-15 13:30N 52°28' E 004°40'0 0.0
2018-Feb-15 13:00N 52°28' E 004°40'0 0.0
2018-Feb-15 12:30N 52°28' E 004°40'0 0.0
2018-Feb-15 12:00N 52°28' E 004°40'0 0.0
2018-Feb-15 11:00N 52°28' E 004°40'0 0.0
2018-Feb-15 10:30N 52°28' E 004°40'0 0.0
2018-Feb-15 10:00N 52°28' E 004°40'0 0.0
2018-Feb-15 09:30N 52°28' E 004°40'0 0.0
2018-Feb-15 09:00N 52°28' E 004°40'0 0.0
2018-Feb-15 08:00N 52°28' E 004°40'0 0.0
2018-Feb-15 07:30N 52°28' E 004°40'0 0.0
2018-Feb-15 07:00N 52°28' E 004°40'0 0.0
2018-Feb-15 06:30N 52°28' E 004°40'0 0.0
2018-Feb-15 06:00N 52°28' E 004°40'0 0.0
2018-Feb-15 05:30N 52°28' E 004°40'0 0.0
2018-Feb-15 05:00N 52°28' E 004°40'0 0.0
2018-Feb-15 04:30N 52°28' E 004°40'0 0.0
2018-Feb-15 04:00N 52°28' E 004°40'0 0.7
2018-Feb-15 03:30N 52°28' E 004°39'2 4.3
2018-Feb-15 03:01N 52°28' E 004°36'1 1.6
2018-Feb-15 02:30N 52°28' E 004°35'510.7
2018-Feb-15 02:00N 52°28' E 004°26'2 3.7
2018-Feb-15 01:30N 52°28' E 004°23'2 3.9
2018-Feb-15 01:00N 52°28' E 004°20'4 7.2
2018-Feb-15 00:30N 52°29' E 004°14'3 6.6
2018-Feb-15 00:00N 52°30' E 004°09'3 5.8
2018-Feb-14 23:30N 52°32' E 004°06'  
2018-Feb-11 09:20N 62°01' E 004°26'514.5
2018-Feb-11 09:00N 62°03' E 004°35'714.5
2018-Feb-11 08:30N 62°07' E 004°48'814.8
2018-Feb-11 07:59N 62°11' E 005°02'815.2
2018-Feb-11 07:29N 62°15' E 005°16'715.1
2018-Feb-11 07:00N 62°19' E 005°30'713.8
2018-Feb-11 06:30N 62°19' E 005°44'713.8
2018-Feb-11 06:00N 62°25' E 005°52'715.2
2018-Feb-11 05:31N 62°29' E 006°06'2 4.7
2018-Feb-11 05:00N 62°29' E 006°11'0 0.0
2018-Feb-11 04:30N 62°29' E 006°11'1 1.4
2018-Feb-11 04:00N 62°29' E 006°10'611.2
2018-Feb-11 03:30N 62°24' E 006°04'611.8
2018-Feb-11 03:00N 62°18' E 006°03'714.3
2018-Feb-11 02:30N 62°13' E 005°53'714.2
2018-Feb-11 02:00N 62°11' E 005°38'612.5
2018-Feb-11 01:30N 62°11' E 005°25'612.3
2018-Feb-11 01:00N 62°13' E 005°13'611.5
2018-Feb-11 00:30N 62°09' E 005°04'714.2
2018-Feb-11 00:00N 62°02' E 005°09'611.8
2018-Feb-10 23:30N 61°56' E 005°08'0 0.0
2018-Feb-10 23:00N 61°56' E 005°08'0 0.0
2018-Feb-10 22:30N 61°56' E 005°08'0 0.0
2018-Feb-10 22:00N 61°56' E 005°08'0 0.0
2018-Feb-10 21:30N 61°56' E 005°08'0 0.0
2018-Feb-10 21:00N 61°56' E 005°08'0 0.0
2018-Feb-10 20:30N 61°56' E 005°08'0 0.0
2018-Feb-10 20:00N 61°56' E 005°08'  

Dump ship's entire track history